sensor_id;sensor_type;location;lat;lon;timestamp;P1;durP1;ratioP1;P2;durP2;ratioP2
30398;SDS011;17195;50.838;7.214;2022-12-18T00:01:13;33.10;;;15.15;;
30398;SDS011;17195;50.838;7.214;2022-12-18T00:03:44;26.88;;;12.52;;
30398;SDS011;17195;50.838;7.214;2022-12-18T00:06:10;26.10;;;11.65;;
30398;SDS011;17195;50.838;7.214;2022-12-18T00:08:36;23.10;;;10.57;;
30398;SDS011;17195;50.838;7.214;2022-12-18T00:11:09;26.02;;;11.52;;
30398;SDS011;17195;50.838;7.214;2022-12-18T00:13:36;23.70;;;12.27;;
30398;SDS011;17195;50.838;7.214;2022-12-18T00:16:03;23.90;;;11.82;;
30398;SDS011;17195;50.838;7.214;2022-12-18T00:18:30;27.15;;;12.02;;
30398;SDS011;17195;50.838;7.214;2022-12-18T00:20:58;27.23;;;12.05;;
30398;SDS011;17195;50.838;7.214;2022-12-18T00:23:25;24.25;;;12.85;;
30398;SDS011;17195;50.838;7.214;2022-12-18T00:25:51;27.42;;;11.68;;
30398;SDS011;17195;50.838;7.214;2022-12-18T00:28:16;27.95;;;12.07;;
30398;SDS011;17195;50.838;7.214;2022-12-18T00:30:42;27.55;;;11.63;;
30398;SDS011;17195;50.838;7.214;2022-12-18T00:33:07;29.63;;;13.35;;
30398;SDS011;17195;50.838;7.214;2022-12-18T00:35:33;34.92;;;14.02;;
30398;SDS011;17195;50.838;7.214;2022-12-18T00:37:58;30.83;;;14.82;;
30398;SDS011;17195;50.838;7.214;2022-12-18T00:40:24;31.67;;;13.80;;
30398;SDS011;17195;50.838;7.214;2022-12-18T00:42:49;27.92;;;12.85;;
30398;SDS011;17195;50.838;7.214;2022-12-18T00:45:22;24.73;;;11.88;;
30398;SDS011;17195;50.838;7.214;2022-12-18T00:47:52;23.95;;;11.18;;
30398;SDS011;17195;50.838;7.214;2022-12-18T00:50:18;25.23;;;11.43;;
30398;SDS011;17195;50.838;7.214;2022-12-18T00:52:44;25.75;;;12.32;;
30398;SDS011;17195;50.838;7.214;2022-12-18T00:55:10;25.00;;;11.70;;
30398;SDS011;17195;50.838;7.214;2022-12-18T00:57:36;25.60;;;12.38;;
30398;SDS011;17195;50.838;7.214;2022-12-18T01:00:03;28.95;;;12.18;;
30398;SDS011;17195;50.838;7.214;2022-12-18T01:02:29;27.50;;;11.68;;
30398;SDS011;17195;50.838;7.214;2022-12-18T01:04:55;29.08;;;11.55;;
30398;SDS011;17195;50.838;7.214;2022-12-18T01:07:20;28.00;;;12.52;;
30398;SDS011;17195;50.838;7.214;2022-12-18T01:09:46;29.52;;;13.02;;
30398;SDS011;17195;50.838;7.214;2022-12-18T01:12:11;26.17;;;11.20;;
30398;SDS011;17195;50.838;7.214;2022-12-18T01:14:37;29.25;;;12.20;;
30398;SDS011;17195;50.838;7.214;2022-12-18T01:17:03;27.80;;;11.90;;
30398;SDS011;17195;50.838;7.214;2022-12-18T01:19:29;25.30;;;11.95;;
30398;SDS011;17195;50.838;7.214;2022-12-18T01:21:55;29.70;;;13.90;;
30398;SDS011;17195;50.838;7.214;2022-12-18T01:24:21;28.27;;;13.80;;
30398;SDS011;17195;50.838;7.214;2022-12-18T01:26:46;29.20;;;13.93;;
30398;SDS011;17195;50.838;7.214;2022-12-18T01:29:12;33.50;;;13.40;;
30398;SDS011;17195;50.838;7.214;2022-12-18T01:31:37;29.58;;;13.18;;
30398;SDS011;17195;50.838;7.214;2022-12-18T01:34:03;31.90;;;13.55;;
30398;SDS011;17195;50.838;7.214;2022-12-18T01:36:30;28.10;;;13.43;;
30398;SDS011;17195;50.838;7.214;2022-12-18T01:38:59;25.67;;;11.60;;
30398;SDS011;17195;50.838;7.214;2022-12-18T01:41:28;25.95;;;11.80;;
30398;SDS011;17195;50.838;7.214;2022-12-18T01:50:05;28.92;;;12.00;;
30398;SDS011;17195;50.838;7.214;2022-12-18T01:52:41;26.33;;;11.55;;
30398;SDS011;17195;50.838;7.214;2022-12-18T01:55:11;33.72;;;14.05;;
30398;SDS011;17195;50.838;7.214;2022-12-18T01:57:39;50.97;;;18.85;;
30398;SDS011;17195;50.838;7.214;2022-12-18T02:00:19;49.75;;;17.92;;
30398;SDS011;17195;50.838;7.214;2022-12-18T02:02:46;51.75;;;17.90;;
30398;SDS011;17195;50.838;7.214;2022-12-18T02:05:14;42.78;;;17.48;;
30398;SDS011;17195;50.838;7.214;2022-12-18T02:07:45;40.00;;;17.30;;
30398;SDS011;17195;50.838;7.214;2022-12-18T02:10:20;45.85;;;17.23;;
30398;SDS011;17195;50.838;7.214;2022-12-18T02:13:04;44.90;;;16.92;;
30398;SDS011;17195;50.838;7.214;2022-12-18T02:18:39;37.00;;;16.02;;
30398;SDS011;17195;50.838;7.214;2022-12-18T02:26:44;44.80;;;18.40;;
30398;SDS011;17195;50.838;7.214;2022-12-18T02:29:15;45.80;;;17.88;;
30398;SDS011;17195;50.838;7.214;2022-12-18T02:31:47;40.30;;;16.95;;
30398;SDS011;17195;50.838;7.214;2022-12-18T02:34:17;37.35;;;16.08;;
30398;SDS011;17195;50.838;7.214;2022-12-18T02:36:44;39.45;;;15.60;;
30398;SDS011;17195;50.838;7.214;2022-12-18T02:39:13;38.67;;;15.70;;
30398;SDS011;17195;50.838;7.214;2022-12-18T02:41:40;33.83;;;14.65;;
30398;SDS011;17195;50.838;7.214;2022-12-18T02:44:08;29.65;;;13.85;;
30398;SDS011;17195;50.838;7.214;2022-12-18T02:46:39;26.23;;;13.00;;
30398;SDS011;17195;50.838;7.214;2022-12-18T02:57:44;28.20;;;11.80;;
30398;SDS011;17195;50.838;7.214;2022-12-18T03:00:23;27.90;;;12.43;;
30398;SDS011;17195;50.838;7.214;2022-12-18T03:03:16;25.50;;;11.57;;
30398;SDS011;17195;50.838;7.214;2022-12-18T03:05:50;23.25;;;11.77;;
30398;SDS011;17195;50.838;7.214;2022-12-18T03:08:34;28.95;;;13.20;;
30398;SDS011;17195;50.838;7.214;2022-12-18T03:11:05;26.50;;;10.77;;
30398;SDS011;17195;50.838;7.214;2022-12-18T03:13:37;27.75;;;11.45;;
30398;SDS011;17195;50.838;7.214;2022-12-18T03:16:07;26.60;;;11.38;;
30398;SDS011;17195;50.838;7.214;2022-12-18T03:18:45;25.27;;;10.98;;
30398;SDS011;17195;50.838;7.214;2022-12-18T03:21:19;24.38;;;11.43;;
30398;SDS011;17195;50.838;7.214;2022-12-18T03:23:49;24.20;;;10.93;;
30398;SDS011;17195;50.838;7.214;2022-12-18T03:26:18;24.33;;;12.07;;
30398;SDS011;17195;50.838;7.214;2022-12-18T03:28:49;28.98;;;12.75;;
30398;SDS011;17195;50.838;7.214;2022-12-18T03:31:17;26.02;;;11.65;;
30398;SDS011;17195;50.838;7.214;2022-12-18T03:33:51;25.98;;;11.40;;
30398;SDS011;17195;50.838;7.214;2022-12-18T03:36:17;25.48;;;11.20;;
30398;SDS011;17195;50.838;7.214;2022-12-18T03:38:42;25.30;;;11.98;;
30398;SDS011;17195;50.838;7.214;2022-12-18T03:41:16;22.63;;;11.00;;
30398;SDS011;17195;50.838;7.214;2022-12-18T03:43:54;28.33;;;12.20;;
30398;SDS011;17195;50.838;7.214;2022-12-18T03:49:28;24.67;;;11.75;;
30398;SDS011;17195;50.838;7.214;2022-12-18T03:54:42;27.98;;;12.25;;
30398;SDS011;17195;50.838;7.214;2022-12-18T03:57:12;23.83;;;12.10;;
30398;SDS011;17195;50.838;7.214;2022-12-18T03:59:41;29.35;;;13.80;;
30398;SDS011;17195;50.838;7.214;2022-12-18T04:02:09;35.72;;;14.73;;
30398;SDS011;17195;50.838;7.214;2022-12-18T04:04:38;25.20;;;13.35;;
30398;SDS011;17195;50.838;7.214;2022-12-18T04:07:05;30.88;;;13.52;;
30398;SDS011;17195;50.838;7.214;2022-12-18T04:09:32;28.30;;;13.43;;
30398;SDS011;17195;50.838;7.214;2022-12-18T04:11:58;26.88;;;13.68;;
30398;SDS011;17195;50.838;7.214;2022-12-18T04:14:24;25.98;;;12.88;;
30398;SDS011;17195;50.838;7.214;2022-12-18T04:16:49;28.83;;;13.10;;
30398;SDS011;17195;50.838;7.214;2022-12-18T04:19:15;26.67;;;13.77;;
30398;SDS011;17195;50.838;7.214;2022-12-18T04:21:41;24.60;;;12.68;;
30398;SDS011;17195;50.838;7.214;2022-12-18T04:24:06;24.63;;;12.85;;
30398;SDS011;17195;50.838;7.214;2022-12-18T04:26:32;24.25;;;12.05;;
30398;SDS011;17195;50.838;7.214;2022-12-18T04:28:57;29.42;;;12.82;;
30398;SDS011;17195;50.838;7.214;2022-12-18T04:31:23;24.88;;;12.80;;
30398;SDS011;17195;50.838;7.214;2022-12-18T04:33:48;24.23;;;12.43;;
30398;SDS011;17195;50.838;7.214;2022-12-18T04:36:14;26.30;;;12.75;;
30398;SDS011;17195;50.838;7.214;2022-12-18T04:38:40;23.67;;;11.98;;
30398;SDS011;17195;50.838;7.214;2022-12-18T04:41:05;24.35;;;11.52;;
30398;SDS011;17195;50.838;7.214;2022-12-18T04:43:31;18.27;;;9.98;;
30398;SDS011;17195;50.838;7.214;2022-12-18T04:46:07;22.15;;;11.30;;
30398;SDS011;17195;50.838;7.214;2022-12-18T04:48:33;17.02;;;9.15;;
30398;SDS011;17195;50.838;7.214;2022-12-18T04:51:00;20.55;;;9.85;;
30398;SDS011;17195;50.838;7.214;2022-12-18T04:53:25;16.42;;;9.27;;
30398;SDS011;17195;50.838;7.214;2022-12-18T04:56:01;22.38;;;10.20;;
30398;SDS011;17195;50.838;7.214;2022-12-18T04:58:28;20.15;;;9.38;;
30398;SDS011;17195;50.838;7.214;2022-12-18T05:00:54;19.40;;;9.27;;
30398;SDS011;17195;50.838;7.214;2022-12-18T05:03:19;17.77;;;9.32;;
30398;SDS011;17195;50.838;7.214;2022-12-18T05:05:45;23.85;;;11.25;;
30398;SDS011;17195;50.838;7.214;2022-12-18T05:08:13;19.92;;;9.77;;
30398;SDS011;17195;50.838;7.214;2022-12-18T05:10:39;18.80;;;9.35;;
30398;SDS011;17195;50.838;7.214;2022-12-18T05:13:05;22.38;;;9.95;;
30398;SDS011;17195;50.838;7.214;2022-12-18T05:15:31;19.35;;;9.38;;
30398;SDS011;17195;50.838;7.214;2022-12-18T05:17:57;17.95;;;8.77;;
30398;SDS011;17195;50.838;7.214;2022-12-18T05:20:24;19.55;;;8.60;;
30398;SDS011;17195;50.838;7.214;2022-12-18T05:22:50;23.55;;;10.30;;
30398;SDS011;17195;50.838;7.214;2022-12-18T05:25:16;24.23;;;10.38;;
30398;SDS011;17195;50.838;7.214;2022-12-18T05:27:42;18.00;;;8.93;;
30398;SDS011;17195;50.838;7.214;2022-12-18T05:30:08;18.77;;;8.93;;
30398;SDS011;17195;50.838;7.214;2022-12-18T05:32:34;17.50;;;8.35;;
30398;SDS011;17195;50.838;7.214;2022-12-18T05:35:00;16.30;;;8.63;;
30398;SDS011;17195;50.838;7.214;2022-12-18T05:37:25;21.63;;;9.02;;
30398;SDS011;17195;50.838;7.214;2022-12-18T05:39:51;21.25;;;9.35;;
30398;SDS011;17195;50.838;7.214;2022-12-18T05:42:16;19.35;;;8.82;;
30398;SDS011;17195;50.838;7.214;2022-12-18T05:44:42;18.52;;;8.88;;
30398;SDS011;17195;50.838;7.214;2022-12-18T05:47:08;17.13;;;9.30;;
30398;SDS011;17195;50.838;7.214;2022-12-18T05:49:34;20.00;;;9.00;;
30398;SDS011;17195;50.838;7.214;2022-12-18T05:51:59;23.67;;;10.40;;
30398;SDS011;17195;50.838;7.214;2022-12-18T05:54:26;24.13;;;10.50;;
30398;SDS011;17195;50.838;7.214;2022-12-18T05:56:52;21.08;;;10.50;;
30398;SDS011;17195;50.838;7.214;2022-12-18T05:59:18;21.70;;;9.73;;
30398;SDS011;17195;50.838;7.214;2022-12-18T06:01:44;20.60;;;9.35;;
30398;SDS011;17195;50.838;7.214;2022-12-18T06:04:10;22.25;;;9.90;;
30398;SDS011;17195;50.838;7.214;2022-12-18T06:06:36;19.52;;;9.07;;
30398;SDS011;17195;50.838;7.214;2022-12-18T06:09:01;22.38;;;10.45;;
30398;SDS011;17195;50.838;7.214;2022-12-18T06:11:33;23.48;;;10.88;;
30398;SDS011;17195;50.838;7.214;2022-12-18T06:13:59;20.23;;;9.43;;
30398;SDS011;17195;50.838;7.214;2022-12-18T06:16:25;20.25;;;9.85;;
30398;SDS011;17195;50.838;7.214;2022-12-18T06:18:51;21.45;;;10.20;;
30398;SDS011;17195;50.838;7.214;2022-12-18T06:21:17;22.05;;;10.38;;
30398;SDS011;17195;50.838;7.214;2022-12-18T06:23:42;19.38;;;9.68;;
30398;SDS011;17195;50.838;7.214;2022-12-18T06:26:13;21.30;;;10.13;;
30398;SDS011;17195;50.838;7.214;2022-12-18T06:28:39;25.98;;;10.30;;
30398;SDS011;17195;50.838;7.214;2022-12-18T06:31:05;24.55;;;10.68;;
30398;SDS011;17195;50.838;7.214;2022-12-18T06:33:31;21.35;;;10.57;;
30398;SDS011;17195;50.838;7.214;2022-12-18T06:36:01;22.38;;;9.88;;
30398;SDS011;17195;50.838;7.214;2022-12-18T06:38:30;21.80;;;10.65;;
30398;SDS011;17195;50.838;7.214;2022-12-18T06:40:57;20.60;;;9.52;;
30398;SDS011;17195;50.838;7.214;2022-12-18T06:43:22;22.20;;;10.65;;
30398;SDS011;17195;50.838;7.214;2022-12-18T06:45:48;20.08;;;10.40;;
30398;SDS011;17195;50.838;7.214;2022-12-18T06:48:17;23.60;;;11.55;;
30398;SDS011;17195;50.838;7.214;2022-12-18T06:50:46;20.27;;;10.23;;
30398;SDS011;17195;50.838;7.214;2022-12-18T06:53:12;18.15;;;9.23;;
30398;SDS011;17195;50.838;7.214;2022-12-18T06:55:38;20.20;;;9.75;;
30398;SDS011;17195;50.838;7.214;2022-12-18T06:58:03;21.42;;;10.45;;
30398;SDS011;17195;50.838;7.214;2022-12-18T07:00:29;28.58;;;14.32;;
30398;SDS011;17195;50.838;7.214;2022-12-18T07:02:55;26.95;;;13.70;;
30398;SDS011;17195;50.838;7.214;2022-12-18T07:05:20;26.77;;;11.15;;
30398;SDS011;17195;50.838;7.214;2022-12-18T07:07:46;21.02;;;10.55;;
30398;SDS011;17195;50.838;7.214;2022-12-18T07:10:11;22.25;;;10.88;;
30398;SDS011;17195;50.838;7.214;2022-12-18T07:12:37;19.85;;;10.27;;
30398;SDS011;17195;50.838;7.214;2022-12-18T07:15:02;22.00;;;10.85;;
30398;SDS011;17195;50.838;7.214;2022-12-18T07:17:28;18.13;;;9.90;;
30398;SDS011;17195;50.838;7.214;2022-12-18T07:19:54;20.45;;;9.40;;
30398;SDS011;17195;50.838;7.214;2022-12-18T07:22:20;18.50;;;8.93;;
30398;SDS011;17195;50.838;7.214;2022-12-18T07:24:46;18.73;;;8.60;;
30398;SDS011;17195;50.838;7.214;2022-12-18T07:27:11;21.50;;;9.13;;
30398;SDS011;17195;50.838;7.214;2022-12-18T07:29:37;20.73;;;9.18;;
30398;SDS011;17195;50.838;7.214;2022-12-18T07:32:02;19.85;;;9.38;;
30398;SDS011;17195;50.838;7.214;2022-12-18T07:34:28;18.85;;;8.85;;
30398;SDS011;17195;50.838;7.214;2022-12-18T07:36:54;18.52;;;9.27;;
30398;SDS011;17195;50.838;7.214;2022-12-18T07:39:19;19.38;;;8.98;;
30398;SDS011;17195;50.838;7.214;2022-12-18T07:41:45;18.20;;;8.93;;
30398;SDS011;17195;50.838;7.214;2022-12-18T07:44:30;17.45;;;8.95;;
30398;SDS011;17195;50.838;7.214;2022-12-18T07:46:56;17.23;;;8.90;;
30398;SDS011;17195;50.838;7.214;2022-12-18T07:49:21;15.07;;;8.32;;
30398;SDS011;17195;50.838;7.214;2022-12-18T07:51:47;18.00;;;9.20;;
30398;SDS011;17195;50.838;7.214;2022-12-18T07:54:14;18.00;;;9.00;;
30398;SDS011;17195;50.838;7.214;2022-12-18T07:56:39;17.33;;;9.13;;
30398;SDS011;17195;50.838;7.214;2022-12-18T07:59:05;24.67;;;11.23;;
30398;SDS011;17195;50.838;7.214;2022-12-18T08:01:30;27.27;;;11.27;;
30398;SDS011;17195;50.838;7.214;2022-12-18T08:03:57;20.98;;;10.57;;
30398;SDS011;17195;50.838;7.214;2022-12-18T08:06:23;18.05;;;9.60;;
30398;SDS011;17195;50.838;7.214;2022-12-18T08:08:49;20.90;;;9.77;;
30398;SDS011;17195;50.838;7.214;2022-12-18T08:11:19;22.50;;;9.65;;
30398;SDS011;17195;50.838;7.214;2022-12-18T08:13:44;23.17;;;10.75;;
30398;SDS011;17195;50.838;7.214;2022-12-18T08:16:10;22.15;;;10.30;;
30398;SDS011;17195;50.838;7.214;2022-12-18T08:18:36;23.33;;;11.13;;
30398;SDS011;17195;50.838;7.214;2022-12-18T08:21:09;21.77;;;10.15;;
30398;SDS011;17195;50.838;7.214;2022-12-18T08:23:39;20.35;;;10.57;;
30398;SDS011;17195;50.838;7.214;2022-12-18T08:26:05;26.05;;;11.50;;
30398;SDS011;17195;50.838;7.214;2022-12-18T08:28:31;22.85;;;11.32;;
30398;SDS011;17195;50.838;7.214;2022-12-18T08:30:57;24.10;;;11.27;;
30398;SDS011;17195;50.838;7.214;2022-12-18T08:33:22;24.85;;;12.52;;
30398;SDS011;17195;50.838;7.214;2022-12-18T08:35:48;25.80;;;12.73;;
30398;SDS011;17195;50.838;7.214;2022-12-18T08:38:14;30.90;;;13.60;;
30398;SDS011;17195;50.838;7.214;2022-12-18T08:40:39;27.63;;;13.27;;
30398;SDS011;17195;50.838;7.214;2022-12-18T08:43:05;23.35;;;11.07;;
30398;SDS011;17195;50.838;7.214;2022-12-18T08:45:51;24.38;;;13.30;;
30398;SDS011;17195;50.838;7.214;2022-12-18T08:48:16;53.55;;;28.00;;
30398;SDS011;17195;50.838;7.214;2022-12-18T08:50:42;41.90;;;21.38;;
30398;SDS011;17195;50.838;7.214;2022-12-18T08:53:08;35.40;;;17.65;;
30398;SDS011;17195;50.838;7.214;2022-12-18T08:55:34;45.85;;;21.25;;
30398;SDS011;17195;50.838;7.214;2022-12-18T08:57:59;31.90;;;16.08;;
30398;SDS011;17195;50.838;7.214;2022-12-18T09:00:25;33.25;;;15.98;;
30398;SDS011;17195;50.838;7.214;2022-12-18T09:02:50;36.60;;;18.08;;
30398;SDS011;17195;50.838;7.214;2022-12-18T09:05:16;27.48;;;14.10;;
30398;SDS011;17195;50.838;7.214;2022-12-18T09:07:42;28.27;;;15.15;;
30398;SDS011;17195;50.838;7.214;2022-12-18T09:10:07;36.17;;;17.50;;
30398;SDS011;17195;50.838;7.214;2022-12-18T09:12:33;36.15;;;18.73;;
30398;SDS011;17195;50.838;7.214;2022-12-18T09:14:58;32.35;;;16.95;;
30398;SDS011;17195;50.838;7.214;2022-12-18T09:17:24;42.47;;;20.42;;
30398;SDS011;17195;50.838;7.214;2022-12-18T09:19:50;26.88;;;13.52;;
30398;SDS011;17195;50.838;7.214;2022-12-18T09:22:15;29.70;;;13.23;;
30398;SDS011;17195;50.838;7.214;2022-12-18T09:24:41;25.30;;;12.32;;
30398;SDS011;17195;50.838;7.214;2022-12-18T09:27:06;30.73;;;13.15;;
30398;SDS011;17195;50.838;7.214;2022-12-18T09:29:32;25.50;;;13.63;;
30398;SDS011;17195;50.838;7.214;2022-12-18T09:31:58;30.60;;;14.65;;
30398;SDS011;17195;50.838;7.214;2022-12-18T09:34:23;29.27;;;13.93;;
30398;SDS011;17195;50.838;7.214;2022-12-18T09:36:49;37.30;;;20.77;;
30398;SDS011;17195;50.838;7.214;2022-12-18T09:39:15;29.60;;;14.90;;
30398;SDS011;17195;50.838;7.214;2022-12-18T09:44:14;26.10;;;11.95;;
30398;SDS011;17195;50.838;7.214;2022-12-18T09:46:48;25.33;;;11.35;;
30398;SDS011;17195;50.838;7.214;2022-12-18T09:49:21;22.75;;;11.70;;
30398;SDS011;17195;50.838;7.214;2022-12-18T09:51:51;25.35;;;13.07;;
30398;SDS011;17195;50.838;7.214;2022-12-18T09:54:26;29.60;;;15.23;;
30398;SDS011;17195;50.838;7.214;2022-12-18T09:56:58;25.33;;;11.77;;
30398;SDS011;17195;50.838;7.214;2022-12-18T10:02:15;23.65;;;12.80;;
30398;SDS011;17195;50.838;7.214;2022-12-18T10:04:44;21.73;;;11.63;;
30398;SDS011;17195;50.838;7.214;2022-12-18T10:13:05;26.02;;;13.40;;
30398;SDS011;17195;50.838;7.214;2022-12-18T10:15:45;29.10;;;13.50;;
30398;SDS011;17195;50.838;7.214;2022-12-18T10:21:18;24.48;;;12.00;;
30398;SDS011;17195;50.838;7.214;2022-12-18T10:23:53;25.65;;;12.55;;
30398;SDS011;17195;50.838;7.214;2022-12-18T10:26:28;26.33;;;12.40;;
30398;SDS011;17195;50.838;7.214;2022-12-18T10:28:53;33.15;;;14.38;;
30398;SDS011;17195;50.838;7.214;2022-12-18T10:31:22;30.38;;;14.10;;
30398;SDS011;17195;50.838;7.214;2022-12-18T10:33:49;40.05;;;16.85;;
30398;SDS011;17195;50.838;7.214;2022-12-18T10:36:14;22.95;;;11.73;;
30398;SDS011;17195;50.838;7.214;2022-12-18T10:38:40;31.58;;;14.93;;
30398;SDS011;17195;50.838;7.214;2022-12-18T10:41:08;29.48;;;14.82;;
30398;SDS011;17195;50.838;7.214;2022-12-18T10:46:46;22.80;;;12.00;;
30398;SDS011;17195;50.838;7.214;2022-12-18T10:49:22;22.13;;;10.68;;
30398;SDS011;17195;50.838;7.214;2022-12-18T10:52:12;21.83;;;10.38;;
30398;SDS011;17195;50.838;7.214;2022-12-18T10:54:47;22.20;;;12.05;;
30398;SDS011;17195;50.838;7.214;2022-12-18T10:57:35;98.60;;;43.38;;
30398;SDS011;17195;50.838;7.214;2022-12-18T11:02:46;35.40;;;16.42;;
30398;SDS011;17195;50.838;7.214;2022-12-18T11:07:50;20.00;;;11.30;;
30398;SDS011;17195;50.838;7.214;2022-12-18T11:10:17;22.95;;;12.80;;
30398;SDS011;17195;50.838;7.214;2022-12-18T11:12:45;29.30;;;14.20;;
30398;SDS011;17195;50.838;7.214;2022-12-18T11:15:19;22.35;;;12.38;;
30398;SDS011;17195;50.838;7.214;2022-12-18T11:17:48;25.38;;;12.27;;
30398;SDS011;17195;50.838;7.214;2022-12-18T11:20:48;24.35;;;12.63;;
30398;SDS011;17195;50.838;7.214;2022-12-18T11:23:11;26.02;;;12.88;;
30398;SDS011;17195;50.838;7.214;2022-12-18T11:25:38;23.10;;;12.30;;
30398;SDS011;17195;50.838;7.214;2022-12-18T11:33:54;28.42;;;14.18;;
30398;SDS011;17195;50.838;7.214;2022-12-18T11:36:25;24.75;;;12.77;;
30398;SDS011;17195;50.838;7.214;2022-12-18T11:38:54;23.13;;;12.13;;
30398;SDS011;17195;50.838;7.214;2022-12-18T11:41:27;23.80;;;13.48;;
30398;SDS011;17195;50.838;7.214;2022-12-18T11:44:19;24.27;;;12.73;;
30398;SDS011;17195;50.838;7.214;2022-12-18T11:47:00;22.55;;;13.00;;
30398;SDS011;17195;50.838;7.214;2022-12-18T11:49:34;25.52;;;13.23;;
30398;SDS011;17195;50.838;7.214;2022-12-18T11:54:44;24.58;;;12.40;;
30398;SDS011;17195;50.838;7.214;2022-12-18T12:04:41;27.02;;;13.40;;
30398;SDS011;17195;50.838;7.214;2022-12-18T12:07:26;28.50;;;14.10;;
30398;SDS011;17195;50.838;7.214;2022-12-18T12:10:18;25.52;;;13.85;;
30398;SDS011;17195;50.838;7.214;2022-12-18T12:13:11;25.42;;;12.38;;
30398;SDS011;17195;50.838;7.214;2022-12-18T12:24:04;24.40;;;13.32;;
30398;SDS011;17195;50.838;7.214;2022-12-18T12:26:57;27.25;;;14.20;;
30398;SDS011;17195;50.838;7.214;2022-12-18T12:41:22;29.17;;;15.13;;
30398;SDS011;17195;50.838;7.214;2022-12-18T12:44:13;25.98;;;14.15;;
30398;SDS011;17195;50.838;7.214;2022-12-18T12:46:44;32.03;;;15.25;;
30398;SDS011;17195;50.838;7.214;2022-12-18T12:49:12;31.20;;;14.57;;
30398;SDS011;17195;50.838;7.214;2022-12-18T12:51:44;31.42;;;16.17;;
30398;SDS011;17195;50.838;7.214;2022-12-18T12:54:20;34.28;;;16.77;;
30398;SDS011;17195;50.838;7.214;2022-12-18T12:56:54;31.05;;;16.20;;
30398;SDS011;17195;50.838;7.214;2022-12-18T12:59:37;29.13;;;14.95;;
30398;SDS011;17195;50.838;7.214;2022-12-18T13:23:31;29.58;;;15.32;;
30398;SDS011;17195;50.838;7.214;2022-12-18T13:31:10;30.85;;;15.60;;
30398;SDS011;17195;50.838;7.214;2022-12-18T13:34:13;29.20;;;14.20;;
30398;SDS011;17195;50.838;7.214;2022-12-18T13:36:47;31.70;;;16.83;;
30398;SDS011;17195;50.838;7.214;2022-12-18T13:41:39;34.45;;;17.30;;
30398;SDS011;17195;50.838;7.214;2022-12-18T13:47:05;34.30;;;16.92;;
30398;SDS011;17195;50.838;7.214;2022-12-18T13:49:49;29.30;;;16.38;;
30398;SDS011;17195;50.838;7.214;2022-12-18T13:52:16;32.78;;;16.02;;
30398;SDS011;17195;50.838;7.214;2022-12-18T13:54:49;31.48;;;17.33;;
30398;SDS011;17195;50.838;7.214;2022-12-18T13:57:27;34.75;;;17.80;;
30398;SDS011;17195;50.838;7.214;2022-12-18T13:59:55;32.30;;;16.33;;
30398;SDS011;17195;50.838;7.214;2022-12-18T14:02:22;33.63;;;18.20;;
30398;SDS011;17195;50.838;7.214;2022-12-18T14:04:49;35.92;;;18.15;;
30398;SDS011;17195;50.838;7.214;2022-12-18T14:07:22;33.35;;;18.33;;
30398;SDS011;17195;50.838;7.214;2022-12-18T14:09:51;36.08;;;18.33;;
30398;SDS011;17195;50.838;7.214;2022-12-18T14:17:50;39.10;;;18.30;;
30398;SDS011;17195;50.838;7.214;2022-12-18T14:20:17;35.40;;;17.33;;
30398;SDS011;17195;50.838;7.214;2022-12-18T14:22:43;35.15;;;17.98;;
30398;SDS011;17195;50.838;7.214;2022-12-18T14:27:42;37.05;;;17.63;;
30398;SDS011;17195;50.838;7.214;2022-12-18T14:30:24;31.10;;;17.58;;
30398;SDS011;17195;50.838;7.214;2022-12-18T14:35:34;33.67;;;17.42;;
30398;SDS011;17195;50.838;7.214;2022-12-18T14:38:38;36.80;;;19.83;;
30398;SDS011;17195;50.838;7.214;2022-12-18T14:41:05;37.15;;;19.05;;
30398;SDS011;17195;50.838;7.214;2022-12-18T14:43:39;36.75;;;18.33;;
30398;SDS011;17195;50.838;7.214;2022-12-18T14:46:25;37.03;;;18.08;;
30398;SDS011;17195;50.838;7.214;2022-12-18T14:49:02;37.38;;;17.92;;
30398;SDS011;17195;50.838;7.214;2022-12-18T14:52:03;32.58;;;17.02;;
30398;SDS011;17195;50.838;7.214;2022-12-18T14:54:31;44.97;;;20.45;;
30398;SDS011;17195;50.838;7.214;2022-12-18T14:59:30;55.08;;;23.50;;
30398;SDS011;17195;50.838;7.214;2022-12-18T15:04:29;67.05;;;26.80;;
30398;SDS011;17195;50.838;7.214;2022-12-18T15:07:12;44.97;;;23.08;;
30398;SDS011;17195;50.838;7.214;2022-12-18T15:09:39;39.88;;;20.25;;
30398;SDS011;17195;50.838;7.214;2022-12-18T15:18:23;41.88;;;20.13;;
30398;SDS011;17195;50.838;7.214;2022-12-18T15:20:53;39.92;;;20.10;;
30398;SDS011;17195;50.838;7.214;2022-12-18T15:23:34;45.78;;;22.90;;
30398;SDS011;17195;50.838;7.214;2022-12-18T15:26:10;40.20;;;20.92;;
30398;SDS011;17195;50.838;7.214;2022-12-18T15:28:45;51.65;;;23.23;;
30398;SDS011;17195;50.838;7.214;2022-12-18T15:36:18;43.10;;;21.75;;
30398;SDS011;17195;50.838;7.214;2022-12-18T15:38:48;46.22;;;20.90;;
30398;SDS011;17195;50.838;7.214;2022-12-18T15:41:15;45.45;;;21.95;;
30398;SDS011;17195;50.838;7.214;2022-12-18T15:43:46;42.15;;;20.70;;
30398;SDS011;17195;50.838;7.214;2022-12-18T15:46:16;50.80;;;23.83;;
30398;SDS011;17195;50.838;7.214;2022-12-18T15:48:45;59.35;;;27.15;;
30398;SDS011;17195;50.838;7.214;2022-12-18T15:51:16;43.38;;;22.98;;
30398;SDS011;17195;50.838;7.214;2022-12-18T15:53:44;49.08;;;23.20;;
30398;SDS011;17195;50.838;7.214;2022-12-18T15:56:11;52.60;;;25.50;;
30398;SDS011;17195;50.838;7.214;2022-12-18T15:58:57;47.63;;;22.08;;
30398;SDS011;17195;50.838;7.214;2022-12-18T16:01:23;42.17;;;21.63;;
30398;SDS011;17195;50.838;7.214;2022-12-18T16:03:51;48.65;;;22.83;;
30398;SDS011;17195;50.838;7.214;2022-12-18T16:06:17;52.78;;;24.95;;
30398;SDS011;17195;50.838;7.214;2022-12-18T16:08:42;48.70;;;23.23;;
30398;SDS011;17195;50.838;7.214;2022-12-18T16:11:14;50.92;;;23.92;;
30398;SDS011;17195;50.838;7.214;2022-12-18T16:13:45;51.67;;;23.63;;
30398;SDS011;17195;50.838;7.214;2022-12-18T16:16:10;52.40;;;24.77;;
30398;SDS011;17195;50.838;7.214;2022-12-18T16:18:37;49.55;;;23.90;;
30398;SDS011;17195;50.838;7.214;2022-12-18T16:21:02;63.08;;;27.20;;
30398;SDS011;17195;50.838;7.214;2022-12-18T16:23:28;52.05;;;25.80;;
30398;SDS011;17195;50.838;7.214;2022-12-18T16:25:54;59.10;;;23.45;;
30398;SDS011;17195;50.838;7.214;2022-12-18T16:28:19;52.38;;;25.42;;
30398;SDS011;17195;50.838;7.214;2022-12-18T16:30:45;57.15;;;25.33;;
30398;SDS011;17195;50.838;7.214;2022-12-18T16:33:11;53.75;;;24.95;;
30398;SDS011;17195;50.838;7.214;2022-12-18T16:35:36;55.22;;;27.33;;
30398;SDS011;17195;50.838;7.214;2022-12-18T16:38:02;54.25;;;23.80;;
30398;SDS011;17195;50.838;7.214;2022-12-18T16:40:28;52.78;;;25.05;;
30398;SDS011;17195;50.838;7.214;2022-12-18T16:42:56;52.67;;;25.55;;
30398;SDS011;17195;50.838;7.214;2022-12-18T16:45:22;51.58;;;24.33;;
30398;SDS011;17195;50.838;7.214;2022-12-18T16:47:48;50.08;;;23.40;;
30398;SDS011;17195;50.838;7.214;2022-12-18T16:50:14;52.97;;;24.40;;
30398;SDS011;17195;50.838;7.214;2022-12-18T16:52:39;50.30;;;24.27;;
30398;SDS011;17195;50.838;7.214;2022-12-18T16:55:05;47.78;;;22.73;;
30398;SDS011;17195;50.838;7.214;2022-12-18T16:57:32;47.47;;;23.45;;
30398;SDS011;17195;50.838;7.214;2022-12-18T16:59:57;53.88;;;25.13;;
30398;SDS011;17195;50.838;7.214;2022-12-18T17:02:24;52.60;;;23.55;;